createdAt,value
2019-02-22T00:00:22.727Z,25.37
2019-02-22T00:02:51.137Z,24.80
2019-02-22T00:05:19.484Z,26.30
2019-02-22T00:07:47.830Z,24.15
2019-02-22T00:10:16.485Z,25.17
2019-02-22T00:12:44.922Z,24.93
2019-02-22T00:15:14.081Z,25.50
2019-02-22T00:17:42.398Z,24.72
2019-02-22T00:20:11.203Z,26.57
2019-02-22T00:22:39.543Z,24.83
2019-02-22T00:25:07.932Z,25.17
2019-02-22T00:27:36.330Z,24.82
2019-02-22T00:30:06.303Z,27.10
2019-02-22T00:32:34.661Z,27.07
2019-02-22T00:35:03.903Z,28.07
2019-02-22T00:37:32.530Z,26.53
2019-02-22T00:42:35.124Z,24.50
2019-02-22T00:45:03.598Z,24.90
2019-02-22T00:47:31.932Z,24.97
2019-02-22T00:50:00.332Z,25.03
2019-02-22T00:52:28.740Z,25.77
2019-02-22T00:54:57.082Z,26.70
2019-02-22T00:57:25.465Z,25.83
2019-02-22T00:59:53.919Z,26.47
2019-02-22T01:02:22.303Z,26.37
2019-02-22T01:04:51.018Z,26.70
2019-02-22T01:07:20.416Z,26.43
2019-02-22T01:09:48.800Z,27.77
2019-02-22T01:12:17.119Z,27.73
2019-02-22T01:14:45.478Z,27.00
2019-02-22T01:17:13.898Z,27.80
2019-02-22T01:19:42.261Z,30.03
2019-02-22T01:22:11.082Z,28.65
2019-02-22T01:24:39.437Z,29.37
2019-02-22T01:27:07.852Z,28.80
2019-02-22T01:29:36.223Z,29.00
2019-02-22T01:32:04.555Z,29.23
2019-02-22T01:34:32.973Z,28.80
2019-02-22T01:37:01.308Z,29.70
2019-02-22T01:39:29.666Z,28.50
2019-02-22T01:41:58.001Z,29.40
2019-02-22T01:44:26.360Z,28.03
2019-02-22T01:46:54.680Z,28.80
2019-02-22T01:49:23.035Z,30.87
2019-02-22T01:51:51.420Z,29.10
2019-02-22T01:54:19.774Z,28.20
2019-02-22T01:56:48.139Z,30.27
2019-02-22T01:59:16.506Z,30.70
2019-02-22T02:01:44.948Z,27.87
2019-02-22T02:04:13.362Z,30.10
2019-02-22T02:06:41.848Z,29.02
2019-02-22T02:09:10.899Z,28.70
2019-02-22T02:11:39.232Z,30.70
2019-02-22T02:14:07.575Z,29.80
2019-02-22T02:16:35.934Z,29.97
2019-02-22T02:19:04.300Z,30.40
2019-02-22T02:21:32.756Z,28.77
2019-02-22T02:24:01.130Z,26.73
2019-02-22T02:26:29.544Z,28.00
2019-02-22T02:28:57.872Z,29.70
2019-02-22T02:31:26.258Z,28.13
2019-02-22T02:33:54.733Z,26.40
2019-02-22T02:36:23.066Z,27.20
2019-02-22T02:38:51.523Z,28.27
2019-02-22T02:41:19.834Z,26.37
2019-02-22T02:43:48.188Z,28.10
2019-02-22T02:46:16.541Z,29.73
2019-02-22T02:48:44.891Z,28.30
2019-02-22T02:51:13.503Z,26.13
2019-02-22T02:53:41.869Z,24.80
2019-02-22T02:56:10.632Z,24.70
2019-02-22T02:58:39.301Z,25.90
2019-02-22T03:01:07.719Z,26.77
2019-02-22T03:03:36.105Z,26.17
2019-02-22T03:06:06.503Z,26.50
2019-02-22T03:08:35.293Z,27.30
2019-02-22T03:11:03.761Z,26.90
2019-02-22T03:13:32.187Z,27.87
2019-02-22T03:16:00.564Z,27.43
2019-02-22T03:18:28.902Z,26.50
2019-02-22T03:20:57.230Z,25.70
2019-02-22T03:23:25.594Z,25.40
2019-02-22T03:25:53.949Z,25.00
2019-02-22T03:28:22.411Z,26.67
2019-02-22T03:30:50.789Z,26.50
2019-02-22T03:33:19.224Z,26.75
2019-02-22T03:35:47.685Z,27.00
2019-02-22T03:38:16.021Z,26.90
2019-02-22T03:40:44.447Z,25.57
2019-02-22T03:43:12.816Z,25.93
2019-02-22T03:45:41.203Z,25.07
2019-02-22T03:48:09.984Z,24.30
2019-02-22T03:50:38.337Z,23.90
2019-02-22T03:53:10.590Z,21.57
2019-02-22T03:55:38.967Z,23.77
2019-02-22T03:58:07.379Z,22.58
2019-02-22T04:00:36.739Z,22.82
2019-02-22T04:03:05.180Z,21.93
2019-02-22T04:05:33.572Z,22.37
2019-02-22T04:08:01.914Z,22.37
2019-02-22T04:10:30.335Z,21.97
2019-02-22T04:12:58.682Z,22.40
2019-02-22T04:15:27.048Z,21.00
2019-02-22T04:17:55.394Z,20.10
2019-02-22T04:20:23.746Z,20.53
2019-02-22T04:22:52.081Z,21.00
2019-02-22T04:25:20.543Z,20.48
2019-02-22T04:27:49.016Z,19.77
2019-02-22T04:30:17.555Z,18.73
2019-02-22T04:32:45.922Z,19.00
2019-02-22T04:35:14.777Z,18.63
2019-02-22T04:37:43.206Z,18.37
2019-02-22T04:40:12.379Z,18.82
2019-02-22T04:42:40.742Z,18.62
2019-02-22T04:45:09.391Z,17.00
2019-02-22T04:47:37.737Z,17.43
2019-02-22T04:50:06.711Z,17.73
2019-02-22T04:52:35.061Z,16.73
2019-02-22T04:55:03.492Z,16.10
2019-02-22T04:57:31.895Z,16.03
2019-02-22T05:00:00.579Z,15.83
2019-02-22T05:02:28.943Z,15.20
2019-02-22T05:04:57.289Z,14.78
2019-02-22T05:07:25.653Z,14.83
2019-02-22T05:09:53.995Z,15.90
2019-02-22T05:12:22.364Z,15.57
2019-02-22T05:14:50.708Z,15.38
2019-02-22T05:17:19.104Z,15.00
2019-02-22T05:19:47.425Z,13.60
2019-02-22T05:22:15.801Z,14.60
2019-02-22T05:24:44.141Z,14.75
2019-02-22T05:27:13.523Z,14.50
2019-02-22T05:29:41.842Z,14.60
2019-02-22T05:32:10.892Z,14.30
2019-02-22T05:34:39.213Z,14.10
2019-02-22T05:37:07.590Z,14.23
2019-02-22T05:39:35.945Z,14.07
2019-02-22T05:42:04.283Z,15.70
2019-02-22T05:44:32.633Z,14.07
2019-02-22T05:47:00.988Z,13.87
2019-02-22T05:49:29.435Z,14.50
2019-02-22T05:51:57.960Z,13.37
2019-02-22T05:54:26.451Z,14.80
2019-02-22T05:56:55.338Z,12.78
2019-02-22T05:59:23.941Z,14.87
2019-02-22T06:01:52.399Z,13.20
2019-02-22T06:04:20.958Z,13.60
2019-02-22T06:06:49.377Z,13.15
2019-02-22T06:09:17.751Z,13.32
2019-02-22T06:11:46.317Z,13.03
2019-02-22T06:14:14.648Z,14.30
2019-02-22T06:16:44.884Z,13.65
2019-02-22T06:19:14.137Z,12.75
2019-02-22T06:21:42.473Z,11.90
2019-02-22T06:24:10.836Z,12.47
2019-02-22T06:26:39.237Z,11.50
2019-02-22T06:29:07.933Z,12.33
2019-02-22T06:31:36.760Z,12.50
2019-02-22T06:34:05.214Z,12.87
2019-02-22T06:36:33.559Z,12.53
2019-02-22T06:39:01.922Z,13.37
2019-02-22T06:41:30.331Z,12.03
2019-02-22T06:43:58.679Z,11.90
2019-02-22T06:46:27.072Z,12.70
2019-02-22T06:48:55.417Z,12.63
2019-02-22T06:51:23.883Z,12.47
2019-02-22T06:53:52.806Z,12.28
2019-02-22T06:56:21.485Z,12.03
2019-02-22T06:58:51.669Z,12.73
2019-02-22T07:01:20.045Z,12.13
2019-02-22T07:03:48.362Z,12.30
2019-02-22T07:06:16.722Z,12.20
2019-02-22T07:08:45.067Z,12.17
2019-02-22T07:11:16.048Z,12.77
2019-02-22T07:13:44.404Z,13.30
2019-02-22T07:16:12.757Z,11.78
2019-02-22T07:18:41.134Z,12.00
2019-02-22T07:21:09.733Z,12.40
2019-02-22T07:23:38.122Z,13.70
2019-02-22T07:26:06.658Z,12.63
2019-02-22T07:28:35.019Z,11.60
2019-02-22T07:31:03.376Z,12.43
2019-02-22T07:33:31.721Z,12.25
2019-02-22T07:36:00.048Z,12.07
2019-02-22T07:38:29.037Z,11.80
2019-02-22T07:40:57.365Z,12.13
2019-02-22T07:43:25.708Z,12.43
2019-02-22T07:45:54.068Z,11.77
2019-02-22T07:48:22.426Z,12.00
2019-02-22T07:50:57.427Z,11.03
2019-02-22T07:53:21.236Z,10.82
2019-02-22T07:55:49.577Z,11.23
2019-02-22T07:58:18.001Z,11.20
2019-02-22T08:00:46.378Z,10.13
2019-02-22T08:03:14.750Z,9.93
2019-02-22T08:05:43.073Z,10.00
2019-02-22T08:08:11.454Z,8.97
2019-02-22T08:10:39.791Z,10.17
2019-02-22T08:13:19.184Z,8.90
2019-02-22T08:15:39.280Z,9.10
2019-02-22T08:18:07.933Z,9.30
2019-02-22T08:20:36.251Z,7.70
2019-02-22T08:23:04.601Z,9.17
2019-02-22T08:25:33.001Z,8.53
2019-02-22T08:28:01.414Z,7.80
2019-02-22T08:30:29.823Z,7.53
2019-02-22T08:32:58.162Z,7.40
2019-02-22T08:35:26.626Z,8.00
2019-02-22T08:37:54.948Z,7.20
2019-02-22T08:40:23.310Z,7.80
2019-02-22T08:42:51.685Z,7.80
2019-02-22T08:45:20.072Z,7.43
2019-02-22T08:47:48.398Z,7.12
2019-02-22T08:50:16.803Z,7.50
2019-02-22T08:52:45.156Z,6.80
2019-02-22T08:55:13.518Z,7.10
2019-02-22T08:57:41.860Z,7.90
2019-02-22T09:00:12.409Z,7.20
2019-02-22T09:02:40.793Z,7.50
2019-02-22T09:05:10.002Z,7.07
2019-02-22T09:07:38.346Z,7.47
2019-02-22T09:10:10.742Z,6.73
2019-02-22T09:12:39.101Z,5.97
2019-02-22T09:15:09.657Z,6.40
2019-02-22T09:17:37.988Z,7.10
2019-02-22T09:20:11.112Z,5.30
2019-02-22T09:22:39.445Z,5.83
2019-02-22T09:25:08.111Z,5.80
2019-02-22T09:27:36.462Z,4.47
2019-02-22T09:30:08.224Z,4.55
2019-02-22T09:32:36.562Z,4.50
2019-02-22T09:35:08.100Z,5.40
2019-02-22T09:37:36.487Z,4.70
2019-02-22T09:40:08.252Z,3.77
2019-02-22T09:42:36.622Z,3.70
2019-02-22T09:45:08.052Z,3.23
2019-02-22T09:47:36.385Z,4.20
2019-02-22T09:50:09.553Z,3.77
2019-02-22T09:52:37.897Z,3.60
2019-02-22T09:55:09.006Z,3.07
2019-02-22T09:57:37.559Z,3.50
2019-02-22T10:00:10.418Z,3.20
2019-02-22T10:02:38.821Z,3.40
2019-02-22T10:05:09.468Z,3.47
2019-02-22T10:07:37.829Z,3.70
2019-02-22T10:10:09.514Z,2.90
2019-02-22T10:12:37.858Z,3.20
2019-02-22T10:15:08.117Z,2.92
2019-02-22T10:17:36.458Z,3.10
2019-02-22T10:20:06.481Z,3.20
2019-02-22T10:22:34.860Z,2.80
2019-02-22T10:25:03.555Z,3.10
2019-02-22T10:27:31.963Z,2.40
2019-02-22T10:30:00.300Z,2.80
2019-02-22T10:32:28.636Z,2.90
2019-02-22T10:34:56.998Z,2.50
2019-02-22T10:37:25.310Z,2.17
2019-02-22T10:39:53.652Z,2.20
2019-02-22T10:42:21.987Z,2.60
2019-02-22T10:44:50.321Z,2.17
2019-02-22T10:47:18.646Z,2.43
2019-02-22T10:49:47.119Z,2.57
2019-02-22T10:52:15.891Z,2.60
2019-02-22T10:54:44.271Z,2.50
2019-02-22T10:57:12.603Z,2.47
2019-02-22T10:59:40.981Z,3.07
2019-02-22T11:02:09.394Z,2.83
2019-02-22T11:04:37.745Z,2.60
2019-02-22T11:07:06.186Z,3.00
2019-02-22T11:09:34.527Z,2.93
2019-02-22T11:12:02.899Z,2.50
2019-02-22T11:14:31.295Z,3.03
2019-02-22T11:16:59.623Z,2.90
2019-02-22T11:19:27.988Z,3.20
2019-02-22T11:21:56.332Z,3.40
2019-02-22T11:24:24.660Z,3.30
2019-02-22T11:26:53.065Z,2.80
2019-02-22T11:29:21.427Z,3.50
2019-02-22T11:31:49.765Z,3.40
2019-02-22T11:34:18.117Z,3.57
2019-02-22T11:36:46.472Z,3.50
2019-02-22T11:39:14.820Z,3.45
2019-02-22T11:41:43.169Z,3.30
2019-02-22T11:44:11.515Z,3.43
2019-02-22T11:46:39.875Z,3.10
2019-02-22T11:49:08.545Z,3.22
2019-02-22T11:51:36.879Z,3.60
2019-02-22T11:54:05.253Z,4.33
2019-02-22T11:56:33.685Z,3.70
2019-02-22T11:59:02.001Z,4.00
2019-02-22T12:01:30.458Z,3.77
2019-02-22T12:03:58.865Z,3.83
2019-02-22T12:06:27.209Z,3.50
2019-02-22T12:08:55.541Z,2.83
2019-02-22T12:11:23.905Z,3.60
2019-02-22T12:13:52.227Z,3.53
2019-02-22T12:16:20.623Z,3.97
2019-02-22T12:18:49.029Z,3.13
2019-02-22T12:21:17.378Z,3.50
2019-02-22T12:23:45.738Z,3.40
2019-02-22T12:26:14.258Z,3.80
2019-02-22T12:28:42.604Z,4.57
2019-02-22T12:31:10.939Z,4.00
2019-02-22T12:33:39.334Z,4.00
2019-02-22T12:36:09.637Z,3.47
2019-02-22T12:38:38.210Z,3.63
2019-02-22T12:41:06.870Z,3.73
2019-02-22T12:43:35.206Z,4.53
2019-02-22T12:46:03.559Z,4.30
2019-02-22T12:48:31.971Z,3.95
2019-02-22T12:51:00.375Z,3.80
2019-02-22T12:53:28.716Z,4.00
2019-02-22T12:55:57.155Z,4.60
2019-02-22T12:58:25.562Z,4.45
2019-02-22T13:00:53.917Z,4.10
2019-02-22T13:03:22.283Z,4.17
2019-02-22T13:05:50.597Z,4.25
2019-02-22T13:08:18.954Z,3.90
2019-02-22T13:10:47.305Z,4.30
2019-02-22T13:13:15.909Z,3.92
2019-02-22T13:15:44.196Z,4.40
2019-02-22T13:18:12.680Z,4.33
2019-02-22T13:20:41.133Z,4.70
2019-02-22T13:23:10.343Z,5.20
2019-02-22T13:25:38.737Z,4.73
2019-02-22T13:28:07.400Z,4.10
2019-02-22T13:30:35.698Z,4.80
2019-02-22T13:33:04.065Z,4.60
2019-02-22T13:35:32.438Z,5.23
2019-02-22T13:38:00.785Z,4.97
2019-02-22T13:40:29.143Z,5.47
2019-02-22T13:42:57.499Z,5.03
2019-02-22T13:45:27.120Z,5.53
2019-02-22T13:47:55.751Z,4.92
2019-02-22T13:50:24.234Z,4.92
2019-02-22T13:52:52.798Z,5.30
2019-02-22T13:55:21.120Z,4.57
2019-02-22T13:57:49.480Z,4.58
2019-02-22T14:00:18.842Z,4.30
2019-02-22T14:02:47.289Z,3.70
2019-02-22T14:05:15.732Z,3.23
2019-02-22T14:07:50.658Z,3.97
2019-02-22T14:10:19.478Z,4.15
2019-02-22T14:12:47.878Z,4.23
2019-02-22T14:15:18.665Z,4.30
2019-02-22T14:17:46.623Z,4.40
2019-02-22T14:20:14.974Z,4.13
2019-02-22T14:22:43.285Z,3.70
2019-02-22T14:25:11.913Z,4.00
2019-02-22T14:27:40.332Z,4.17
2019-02-22T14:30:12.154Z,5.23
2019-02-22T14:32:40.476Z,5.83
2019-02-22T14:35:09.492Z,4.43
2019-02-22T14:37:37.951Z,3.97
2019-02-22T14:40:09.230Z,4.73
2019-02-22T14:42:37.540Z,4.57
2019-02-22T14:45:08.979Z,4.10
2019-02-22T14:47:37.292Z,5.17
2019-02-22T14:50:10.212Z,5.37
2019-02-22T14:52:38.558Z,5.20
2019-02-22T14:55:08.686Z,5.30
2019-02-22T14:57:37.074Z,5.70
2019-02-22T15:00:11.630Z,6.07
2019-02-22T15:02:41.235Z,4.70
2019-02-22T15:05:11.271Z,5.90
2019-02-22T15:07:39.625Z,5.20
2019-02-22T15:10:09.239Z,5.60
2019-02-22T15:12:37.545Z,5.30
2019-02-22T15:15:10.453Z,4.60
2019-02-22T15:17:41.044Z,5.33
2019-02-22T15:20:10.141Z,4.50
2019-02-22T15:22:38.488Z,4.70
2019-02-22T15:25:10.639Z,4.53
2019-02-22T15:27:38.959Z,4.37
2019-02-22T15:30:11.194Z,4.77
2019-02-22T15:32:39.608Z,4.63
2019-02-22T15:35:11.329Z,5.10
2019-02-22T15:37:39.682Z,5.43
2019-02-22T15:40:10.914Z,5.00
2019-02-22T15:42:40.610Z,5.60
2019-02-22T15:45:15.647Z,5.30
2019-02-22T15:47:44.042Z,5.20
2019-02-22T15:50:14.086Z,5.73
2019-02-22T15:52:42.527Z,5.33
2019-02-22T15:55:14.214Z,5.77
2019-02-22T15:57:42.140Z,5.47
2019-02-22T16:00:13.259Z,5.42
2019-02-22T16:02:41.618Z,5.72
2019-02-22T16:05:12.966Z,5.30
2019-02-22T16:07:44.657Z,5.50
2019-02-22T16:10:12.893Z,4.97
2019-02-22T16:12:41.296Z,4.95
2019-02-22T16:15:10.599Z,6.33
2019-02-22T16:17:39.011Z,5.57
2019-02-22T16:20:08.409Z,6.40
2019-02-22T16:22:36.780Z,5.07
2019-02-22T16:25:06.281Z,5.73
2019-02-22T16:27:34.634Z,5.47
2019-02-22T16:30:03.467Z,6.10
2019-02-22T16:32:31.813Z,6.27
2019-02-22T16:35:00.244Z,6.00
2019-02-22T16:37:28.685Z,5.53
2019-02-22T16:39:57.125Z,6.03
2019-02-22T16:42:25.482Z,6.90
2019-02-22T16:44:53.805Z,6.20
2019-02-22T16:47:22.164Z,6.25
2019-02-22T16:49:50.500Z,6.90
2019-02-22T16:52:18.865Z,6.37
2019-02-22T16:54:47.279Z,7.30
2019-02-22T16:57:15.617Z,6.85
2019-02-22T16:59:43.984Z,7.50
2019-02-22T17:02:12.372Z,7.37
2019-02-22T17:04:40.723Z,6.75
2019-02-22T17:07:09.420Z,6.93
2019-02-22T17:09:37.811Z,7.17
2019-02-22T17:12:07.013Z,7.37
2019-02-22T17:14:35.532Z,8.30
2019-02-22T17:17:03.914Z,8.10
2019-02-22T17:19:32.310Z,8.17
2019-02-22T17:22:00.706Z,8.70
2019-02-22T17:24:29.066Z,7.83
2019-02-22T17:26:57.421Z,8.07
2019-02-22T17:29:25.802Z,7.97
2019-02-22T17:31:54.183Z,8.90
2019-02-22T17:34:22.493Z,8.90
2019-02-22T17:36:50.834Z,9.40
2019-02-22T17:39:19.170Z,8.80
2019-02-22T17:41:48.258Z,8.60
2019-02-22T17:44:16.575Z,8.37
2019-02-22T17:46:44.896Z,8.25
2019-02-22T17:49:13.251Z,8.33
2019-02-22T17:51:41.587Z,8.70
2019-02-22T17:54:10.101Z,9.03
2019-02-22T17:56:38.434Z,9.00
2019-02-22T17:59:06.801Z,8.37
2019-02-22T18:01:35.261Z,8.58
2019-02-22T18:04:03.609Z,8.73
2019-02-22T18:06:31.960Z,9.23
2019-02-22T18:09:00.405Z,8.60
2019-02-22T18:11:28.747Z,8.10
2019-02-22T18:13:57.086Z,8.80
2019-02-22T18:16:25.439Z,8.97
2019-02-22T18:18:53.776Z,9.27
2019-02-22T18:21:22.167Z,8.95
2019-02-22T18:23:51.468Z,8.40
2019-02-22T18:26:19.824Z,7.80
2019-02-22T18:28:48.180Z,8.45
2019-02-22T18:31:16.567Z,7.55
2019-02-22T18:33:45.528Z,7.63
2019-02-22T18:36:13.878Z,9.00
2019-02-22T18:38:42.270Z,7.93
2019-02-22T18:41:11.234Z,8.37
2019-02-22T18:43:39.560Z,7.47
2019-02-22T18:46:07.902Z,8.13
2019-02-22T18:48:36.237Z,8.95
2019-02-22T18:51:04.610Z,9.35
2019-02-22T18:53:32.995Z,9.30
2019-02-22T18:56:01.413Z,10.97
2019-02-22T18:58:29.750Z,8.57
2019-02-22T19:00:58.102Z,9.30
2019-02-22T19:03:26.445Z,9.10
2019-02-22T19:05:54.782Z,8.90
2019-02-22T19:08:32.161Z,8.95
2019-02-22T19:10:53.521Z,9.10
2019-02-22T19:13:21.909Z,9.30
2019-02-22T19:15:50.249Z,9.80
2019-02-22T19:18:18.613Z,9.63
2019-02-22T19:20:47.046Z,9.80
2019-02-22T19:23:15.511Z,8.20
2019-02-22T19:25:43.846Z,10.10
2019-02-22T19:28:12.413Z,8.58
2019-02-22T19:30:40.740Z,10.00
2019-02-22T19:33:09.101Z,8.73
2019-02-22T19:35:37.439Z,9.47
2019-02-22T19:38:05.867Z,8.98
2019-02-22T19:40:34.178Z,8.30
2019-02-22T19:43:02.536Z,9.17
2019-02-22T19:45:30.912Z,7.83
2019-02-22T19:47:59.279Z,7.30
2019-02-22T19:50:27.611Z,7.90
2019-02-22T19:52:55.989Z,8.80
2019-02-22T19:55:24.373Z,8.63
2019-02-22T19:57:52.737Z,9.35
2019-02-22T20:00:21.119Z,8.27
2019-02-22T20:02:49.469Z,9.43
2019-02-22T20:05:17.843Z,8.70
2019-02-22T20:07:46.898Z,8.13
2019-02-22T20:10:18.216Z,9.13
2019-02-22T20:12:46.955Z,7.53
2019-02-22T20:15:16.627Z,8.43
2019-02-22T20:17:53.232Z,7.87
2019-02-22T20:20:17.481Z,7.30
2019-02-22T20:22:45.854Z,8.47
2019-02-22T20:25:15.079Z,8.20
2019-02-22T20:27:43.478Z,8.63
2019-02-22T20:30:14.767Z,8.80
2019-02-22T20:32:43.630Z,8.73
2019-02-22T20:35:14.806Z,8.90
2019-02-22T20:37:51.892Z,7.63
2019-02-22T20:40:14.664Z,8.13
2019-02-22T20:42:43.053Z,8.90
2019-02-22T20:45:12.962Z,9.28
2019-02-22T20:47:41.320Z,8.90
2019-02-22T20:50:11.737Z,8.07
2019-02-22T20:52:40.113Z,9.13
2019-02-22T20:55:10.027Z,8.27
2019-02-22T20:57:38.646Z,8.00
2019-02-22T21:00:12.053Z,8.43
2019-02-22T21:02:40.385Z,7.70
2019-02-22T21:05:09.877Z,8.33
2019-02-22T21:07:38.263Z,7.30
2019-02-22T21:10:10.400Z,8.23
2019-02-22T21:12:38.745Z,7.37
2019-02-22T21:15:08.728Z,8.27
2019-02-22T21:17:37.084Z,7.07
2019-02-22T21:20:07.981Z,7.20
2019-02-22T21:22:36.332Z,7.10
2019-02-22T21:25:06.990Z,7.80
2019-02-22T21:27:35.343Z,6.40
2019-02-22T21:30:05.189Z,6.80
2019-02-22T21:32:33.525Z,6.95
2019-02-22T21:35:01.916Z,5.83
2019-02-22T21:37:30.298Z,6.30
2019-02-22T21:39:58.630Z,6.12
2019-02-22T21:42:26.966Z,5.40
2019-02-22T21:44:55.310Z,5.37
2019-02-22T21:47:23.656Z,5.63
2019-02-22T21:49:51.980Z,6.13
2019-02-22T21:52:20.327Z,5.07
2019-02-22T21:54:48.638Z,4.47
2019-02-22T21:57:17.010Z,5.53
2019-02-22T21:59:45.337Z,5.35
2019-02-22T22:02:14.402Z,6.22
2019-02-22T22:04:42.745Z,5.77
2019-02-22T22:07:11.499Z,5.37
2019-02-22T22:09:39.937Z,5.10
2019-02-22T22:12:08.416Z,5.47
2019-02-22T22:14:36.900Z,5.33
2019-02-22T22:17:05.318Z,5.60
2019-02-22T22:19:33.669Z,6.17
2019-02-22T22:22:02.022Z,6.40
2019-02-22T22:24:30.357Z,7.00
2019-02-22T22:26:58.689Z,6.25
2019-02-22T22:29:27.030Z,6.50
2019-02-22T22:31:55.359Z,6.42
2019-02-22T22:34:23.711Z,6.65
2019-02-22T22:36:52.032Z,7.20
2019-02-22T22:39:20.386Z,7.20
2019-02-22T22:41:49.060Z,7.92
2019-02-22T22:44:17.391Z,6.50
2019-02-22T22:46:45.741Z,7.20
2019-02-22T22:49:14.110Z,6.73
2019-02-22T22:51:42.495Z,6.00
2019-02-22T22:54:11.851Z,6.73
2019-02-22T22:56:40.206Z,5.58
2019-02-22T22:59:08.697Z,6.13
2019-02-22T23:01:37.047Z,5.93
2019-02-22T23:04:31.337Z,5.50
2019-02-22T23:06:59.731Z,5.58
2019-02-22T23:09:28.153Z,6.13
2019-02-22T23:11:56.455Z,6.83
2019-02-22T23:14:24.804Z,6.50
2019-02-22T23:16:53.117Z,6.90
2019-02-22T23:19:21.458Z,7.00
2019-02-22T23:21:49.823Z,7.10
2019-02-22T23:24:18.229Z,6.67
2019-02-22T23:26:46.560Z,6.27
2019-02-22T23:29:14.938Z,6.13
2019-02-22T23:31:43.337Z,7.23
2019-02-22T23:34:12.206Z,6.97
2019-02-22T23:36:40.550Z,6.73
2019-02-22T23:39:09.388Z,7.80
2019-02-22T23:41:37.792Z,6.27
2019-02-22T23:44:06.120Z,7.00
2019-02-22T23:46:34.508Z,5.80
2019-02-22T23:49:12.839Z,6.70
2019-02-22T23:51:33.241Z,6.80
2019-02-22T23:54:01.598Z,6.35
2019-02-22T23:56:29.911Z,7.03
2019-02-22T23:58:58.228Z,6.30
